首页
METAR-TAF:

METAR-TAF

机场 :

科扎尼, 希腊

纬度: 40-18N, 经度: 021-47E, 海拔: 634米

当前天气观测

该预报发布于27分钟前的21:50 UTC
风速2节,风向多变
温度 10°C
湿度 93%
气压 1013 hPa

METAR: LGKZ 312150Z AUTO VRB02KT //// // ////// 10/09 Q1013 RE//

时间: 01:17 (22:17 UTC)


TAF: 丢失

超过4000个机场的气象观测和天气预报(METAR&TAF报告)。

可查询的气象台以黄色和红色小点在地图上表示。

将鼠标移到小点上方,可查看气象台名称。

然后点击查看天气观测和预报。

如需切换地图:点击带黑十字的绿色按钮放大地图;点击带横线的绿色按钮缩小地图;或者点击绿色箭头查看邻近地区的地图。


METAR-TAF: